PWSweather.com
Personal Weather Stations
Station Observations
KCANORTH19
Rocking L Ranch, North Fork, CA

Rocking L RanchNorth Fork, CA

Lat: 37.248, Lon: -119.56

Elevation: 3093

Station Type: Davis Vantage Pro 2

Latest ConditionsUpdated 11:45:05 PM PDT Thursday, Jul 24, 2014
Currently Today's Max Today's Min Today's Average
Temperature 62.7°F17.1°C 90.3°F32.4°C 54.2°F12.3°C 72.9°F22.7°C
Dew Point 46.3°F7.9°C 49.7°F9.8°C 43.1°F6.2°C 45.7°F7.6°C
Winds Calm Calm 9.0 mph WSW14.5 kmh WSW - 1.6 mph 2.6 kmh
Wind Gusts -- 15.0 mph24.1 kmh - -
Humidity 55% 69% 22% 42%
Pressure 29.83 in1010.2 mb 29.97 in1014.9 mb 29.78 in1008.5 mb -
Hour Temp Dew Point Humidity Winds Wind Gusts Pressure Precip Precip Rate Daily Precip Total
11:45 PM 62.7°F17.1°C 46.3°F7.9°C 55% Calm Calm -- 29.83 in1010.2 mb 0.00 in0.0 mm 0.00 in/hr0.0 mm/hr 0.00 in0.0 mm
11:40 PM 62.9°F17.2°C 47.0°F8.3°C 56% Calm Calm -- 29.83 in1010.2 mb 0.00 in0.0 mm 0.00 in/hr0.0 mm/hr 0.00 in0.0 mm
11:35 PM 63.0°F17.2°C 46.6°F8.1°C 55% Calm Calm -- 29.83 in1010.2 mb 0.00 in0.0 mm 0.00 in/hr0.0 mm/hr 0.00 in0.0 mm
11:30 PM 63.0°F17.2°C 46.6°F8.1°C 55% Calm Calm -- 29.83 in1010.2 mb 0.00 in0.0 mm 0.00 in/hr0.0 mm/hr 0.00 in0.0 mm
11:25 PM 63.3°F17.4°C 46.4°F8.0°C 54% Calm Calm -- 29.83 in1010.2 mb 0.00 in0.0 mm 0.00 in/hr0.0 mm/hr 0.00 in0.0 mm
11:20 PM 63.6°F17.6°C 45.7°F7.6°C 52% Calm Calm -- 29.83 in1010.2 mb 0.00 in0.0 mm 0.00 in/hr0.0 mm/hr 0.00 in0.0 mm
11:15 PM 63.9°F17.7°C 46.5°F8.1°C 53% Calm Calm -- 29.83 in1010.2 mb 0.00 in0.0 mm 0.00 in/hr0.0 mm/hr 0.00 in0.0 mm
11:10 PM 64.0°F17.8°C 46.6°F8.1°C 53% Calm Calm -- 29.83 in1010.2 mb 0.00 in0.0 mm 0.00 in/hr0.0 mm/hr 0.00 in0.0 mm
11:05 PM 63.8°F17.7°C 46.4°F8.0°C 53% Calm Calm -- 29.82 in1009.8 mb 0.00 in0.0 mm 0.00 in/hr0.0 mm/hr 0.00 in0.0 mm
11:00 PM 64.0°F17.8°C 45.5°F7.5°C 51% Calm Calm -- 29.82 in1009.8 mb 0.00 in0.0 mm 0.00 in/hr0.0 mm/hr 0.00 in0.0 mm
10:55 PM 64.3°F17.9°C 46.3°F7.9°C 52% Calm Calm -- 29.82 in1009.8 mb 0.00 in0.0 mm 0.00 in/hr0.0 mm/hr 0.00 in0.0 mm
10:50 PM 64.4°F18.0°C 45.9°F7.7°C 51% Calm Calm -- 29.82 in1009.8 mb 0.00 in0.0 mm 0.00 in/hr0.0 mm/hr 0.00 in0.0 mm
10:45 PM 64.7°F18.2°C 46.2°F7.9°C 51% Calm Calm -- 29.82 in1009.8 mb 0.00 in0.0 mm 0.00 in/hr0.0 mm/hr 0.00 in0.0 mm
10:40 PM 64.8°F18.2°C 45.7°F7.6°C 50% Calm Calm -- 29.82 in1009.8 mb 0.00 in0.0 mm 0.00 in/hr0.0 mm/hr 0.00 in0.0 mm
10:35 PM 64.9°F18.3°C 46.4°F8.0°C 51% Calm Calm -- 29.82 in1009.8 mb 0.00 in0.0 mm 0.00 in/hr0.0 mm/hr 0.00 in0.0 mm
10:30 PM 65.1°F18.4°C 46.0°F7.8°C 50% Calm Calm -- 29.82 in1009.8 mb 0.00 in0.0 mm 0.00 in/hr0.0 mm/hr 0.00 in0.0 mm
10:25 PM 65.3°F18.5°C 45.7°F7.6°C 49% Calm Calm -- 29.82 in1009.8 mb 0.00 in0.0 mm 0.00 in/hr0.0 mm/hr 0.00 in0.0 mm
10:20 PM 65.5°F18.6°C 45.9°F7.7°C 49% Calm Calm -- 29.82 in1009.8 mb 0.00 in0.0 mm 0.00 in/hr0.0 mm/hr 0.00 in0.0 mm
10:15 PM 65.7°F18.7°C 45.5°F7.5°C 48% Calm Calm -- 29.82 in1009.8 mb 0.00 in0.0 mm 0.00 in/hr0.0 mm/hr 0.00 in0.0 mm
10:10 PM 65.9°F18.8°C 45.7°F7.6°C 48% Calm Calm -- 29.82 in1009.8 mb 0.00 in0.0 mm 0.00 in/hr0.0 mm/hr 0.00 in0.0 mm
10:05 PM 66.0°F18.9°C 45.8°F7.7°C 48% Calm Calm -- 29.82 in1009.8 mb 0.00 in0.0 mm 0.00 in/hr0.0 mm/hr 0.00 in0.0 mm
10:00 PM 66.4°F19.1°C 45.0°F7.2°C 46% Calm Calm -- 29.82 in1009.8 mb 0.00 in0.0 mm 0.00 in/hr0.0 mm/hr 0.00 in0.0 mm
09:55 PM 66.7°F19.3°C 45.9°F7.7°C 47% Calm Calm -- 29.82 in1009.8 mb 0.00 in0.0 mm 0.00 in/hr0.0 mm/hr 0.00 in0.0 mm
09:50 PM 67.1°F19.5°C 46.2°F7.9°C 47% Calm Calm -- 29.81 in1009.5 mb 0.00 in0.0 mm 0.00 in/hr0.0 mm/hr 0.00 in0.0 mm
09:45 PM 67.6°F19.8°C 46.1°F7.8°C 46% Calm Calm -- 29.81 in1009.5 mb 0.00 in0.0 mm 0.00 in/hr0.0 mm/hr 0.00 in0.0 mm
09:40 PM 67.8°F19.9°C 45.1°F7.3°C 44% Calm Calm -- 29.81 in1009.5 mb 0.00 in0.0 mm 0.00 in/hr0.0 mm/hr 0.00 in0.0 mm
09:35 PM 67.7°F19.8°C 45.6°F7.6°C 45% Calm Calm -- 29.82 in1009.8 mb 0.00 in0.0 mm 0.00 in/hr0.0 mm/hr 0.00 in0.0 mm
09:30 PM 68.3°F20.2°C 45.0°F7.2°C 43% Calm Calm -- 29.81 in1009.5 mb 0.00 in0.0 mm 0.00 in/hr0.0 mm/hr 0.00 in0.0 mm
09:25 PM 69.0°F20.6°C 46.2°F7.9°C 44% Calm Calm -- 29.81 in1009.5 mb 0.00 in0.0 mm 0.00 in/hr0.0 mm/hr 0.00 in0.0 mm
09:20 PM 69.3°F20.7°C 45.9°F7.7°C 43% Calm Calm -- 29.81 in1009.5 mb 0.00 in0.0 mm 0.00 in/hr0.0 mm/hr 0.00 in0.0 mm
09:15 PM 69.6°F20.9°C 45.5°F7.5°C 42% Calm Calm -- 29.81 in1009.5 mb 0.00 in0.0 mm 0.00 in/hr0.0 mm/hr 0.00 in0.0 mm
09:10 PM 69.8°F21.0°C 45.7°F7.6°C 42% Calm Calm -- 29.81 in1009.5 mb 0.00 in0.0 mm 0.00 in/hr0.0 mm/hr 0.00 in0.0 mm
09:05 PM 70.3°F21.3°C 45.5°F7.5°C 41% Calm Calm -- 29.81 in1009.5 mb 0.00 in0.0 mm 0.00 in/hr0.0 mm/hr 0.00 in0.0 mm
09:00 PM 71.0°F21.7°C 45.5°F7.5°C 40% Calm Calm -- 29.81 in1009.5 mb 0.00 in0.0 mm 0.00 in/hr0.0 mm/hr 0.00 in0.0 mm
08:55 PM 71.6°F22.0°C 45.4°F7.4°C 39% Calm Calm -- 29.80 in1009.1 mb 0.00 in0.0 mm 0.00 in/hr0.0 mm/hr 0.00 in0.0 mm
08:50 PM 72.2°F22.3°C 45.2°F7.3°C 38% Calm Calm -- 29.80 in1009.1 mb 0.00 in0.0 mm 0.00 in/hr0.0 mm/hr 0.00 in0.0 mm
08:45 PM 72.8°F22.7°C 45.7°F7.6°C 38% Calm Calm -- 29.80 in1009.1 mb 0.00 in0.0 mm 0.00 in/hr0.0 mm/hr 0.00 in0.0 mm
08:40 PM 73.3°F22.9°C 45.5°F7.5°C 37% Calm Calm -- 29.80 in1009.1 mb 0.00 in0.0 mm 0.00 in/hr0.0 mm/hr 0.00 in0.0 mm
08:35 PM 74.1°F23.4°C 45.5°F7.5°C 36% Calm Calm -- 29.80 in1009.1 mb 0.00 in0.0 mm 0.00 in/hr0.0 mm/hr 0.00 in0.0 mm
08:30 PM 74.8°F23.8°C 45.4°F7.4°C 35% Calm Calm 5.0 mph8.0 kmh 29.80 in1009.1 mb 0.00 in0.0 mm 0.00 in/hr0.0 mm/hr 0.00 in0.0 mm
08:25 PM 75.7°F24.3°C 45.4°F7.4°C 34% Calm Calm 5.0 mph8.0 kmh 29.79 in1008.8 mb 0.00 in0.0 mm 0.00 in/hr0.0 mm/hr 0.00 in0.0 mm
08:20 PM 77.0°F25.0°C 45.7°F7.6°C 33% Calm Calm 5.0 mph8.0 kmh 29.79 in1008.8 mb 0.00 in0.0 mm 0.00 in/hr0.0 mm/hr 0.00 in0.0 mm
08:15 PM 78.0°F25.6°C 45.0°F7.2°C 31% 3.0 mph W4.8 kmh W 5.0 mph8.0 kmh 29.79 in1008.8 mb 0.00 in0.0 mm 0.00 in/hr0.0 mm/hr 0.00 in0.0 mm
08:10 PM 78.7°F25.9°C 44.7°F7.1°C 30% 2.0 mph WSW3.2 kmh WSW 5.0 mph8.0 kmh 29.79 in1008.8 mb 0.00 in0.0 mm 0.00 in/hr0.0 mm/hr 0.00 in0.0 mm
08:05 PM 79.8°F26.6°C 44.8°F7.1°C 29% 1.0 mph W1.6 kmh W 5.0 mph8.0 kmh 29.79 in1008.8 mb 0.00 in0.0 mm 0.00 in/hr0.0 mm/hr 0.00 in0.0 mm
08:00 PM 80.6°F27.0°C 44.5°F6.9°C 28% 6.0 mph WSW9.7 kmh WSW 7.0 mph11.3 kmh 29.78 in1008.5 mb 0.00 in0.0 mm 0.00 in/hr0.0 mm/hr 0.00 in0.0 mm
07:55 PM 81.6°F27.6°C 45.4°F7.4°C 28% 2.0 mph WSW3.2 kmh WSW 7.0 mph11.3 kmh 29.78 in1008.5 mb 0.00 in0.0 mm 0.00 in/hr0.0 mm/hr 0.00 in0.0 mm
07:50 PM 82.0°F27.8°C 44.8°F7.1°C 27% 3.0 mph WSW4.8 kmh WSW 7.0 mph11.3 kmh 29.78 in1008.5 mb 0.00 in0.0 mm 0.00 in/hr0.0 mm/hr 0.00 in0.0 mm
07:45 PM 82.3°F27.9°C 45.0°F7.2°C 27% 6.0 mph WSW9.7 kmh WSW 7.0 mph11.3 kmh 29.79 in1008.8 mb 0.00 in0.0 mm 0.00 in/hr0.0 mm/hr 0.00 in0.0 mm
07:40 PM 82.9°F28.3°C 45.5°F7.5°C 27% 2.0 mph W3.2 kmh W 7.0 mph11.3 kmh 29.78 in1008.5 mb 0.00 in0.0 mm 0.00 in/hr0.0 mm/hr 0.00 in0.0 mm
07:35 PM 83.8°F28.8°C 45.3°F7.4°C 26% 3.0 mph W4.8 kmh W 7.0 mph11.3 kmh 29.78 in1008.5 mb 0.00 in0.0 mm 0.00 in/hr0.0 mm/hr 0.00 in0.0 mm
07:30 PM 84.0°F28.9°C 45.5°F7.5°C 26% 1.0 mph WSW1.6 kmh WSW 9.0 mph14.5 kmh 29.78 in1008.5 mb 0.00 in0.0 mm 0.00 in/hr0.0 mm/hr 0.00 in0.0 mm
07:25 PM 84.3°F29.1°C 44.7°F7.1°C 25% 2.0 mph WSW3.2 kmh WSW 9.0 mph14.5 kmh 29.78 in1008.5 mb 0.00 in0.0 mm 0.00 in/hr0.0 mm/hr 0.00 in0.0 mm
07:20 PM 84.6°F29.2°C 44.9°F7.2°C 25% 6.0 mph WNW9.7 kmh WNW 9.0 mph14.5 kmh 29.78 in1008.5 mb 0.00 in0.0 mm 0.00 in/hr0.0 mm/hr 0.00 in0.0 mm
07:15 PM 84.8°F29.3°C 45.1°F7.3°C 25% 5.0 mph WNW8.0 kmh WNW 9.0 mph14.5 kmh 29.78 in1008.5 mb 0.00 in0.0 mm 0.00 in/hr0.0 mm/hr 0.00 in0.0 mm
07:10 PM 85.1°F29.5°C 45.4°F7.4°C 25% 3.0 mph WSW4.8 kmh WSW 9.0 mph14.5 kmh 29.79 in1008.8 mb 0.00 in0.0 mm 0.00 in/hr0.0 mm/hr 0.00 in0.0 mm
07:05 PM 85.3°F29.6°C 45.5°F7.5°C 25% 5.0 mph SW8.0 kmh SW 9.0 mph14.5 kmh 29.79 in1008.8 mb 0.00 in0.0 mm 0.00 in/hr0.0 mm/hr 0.00 in0.0 mm
07:00 PM 85.5°F29.7°C 45.7°F7.6°C 25% 4.0 mph SW6.4 kmh SW 10.0 mph16.1 kmh 29.79 in1008.8 mb 0.00 in0.0 mm 0.00 in/hr0.0 mm/hr 0.00 in0.0 mm
06:55 PM 85.7°F29.8°C 44.8°F7.1°C 24% 1.0 mph SSW1.6 kmh SSW 10.0 mph16.1 kmh 29.79 in1008.8 mb 0.00 in0.0 mm 0.00 in/hr0.0 mm/hr 0.00 in0.0 mm
06:50 PM 86.0°F30.0°C 45.0°F7.2°C 24% 3.0 mph SW4.8 kmh SW 10.0 mph16.1 kmh 29.78 in1008.5 mb 0.00 in0.0 mm 0.00 in/hr0.0 mm/hr 0.00 in0.0 mm
06:45 PM 86.3°F30.2°C 45.3°F7.4°C 24% Calm Calm 9.0 mph14.5 kmh 29.79 in1008.8 mb 0.00 in0.0 mm 0.00 in/hr0.0 mm/hr 0.00 in0.0 mm
06:40 PM 86.4°F30.2°C 45.4°F7.4°C 24% 6.0 mph SW9.7 kmh SW 9.0 mph14.5 kmh 29.79 in1008.8 mb 0.00 in0.0 mm 0.00 in/hr0.0 mm/hr 0.00 in0.0 mm
06:35 PM 86.7°F30.4°C 45.6°F7.6°C 24% 3.0 mph W4.8 kmh W 8.0 mph12.9 kmh 29.78 in1008.5 mb 0.00 in0.0 mm 0.00 in/hr0.0 mm/hr 0.00 in0.0 mm
06:30 PM 86.6°F30.3°C 45.6°F7.6°C 24% Calm Calm 11.0 mph17.7 kmh 29.79 in1008.8 mb 0.00 in0.0 mm 0.00 in/hr0.0 mm/hr 0.00 in0.0 mm
06:25 PM 86.8°F30.4°C 44.6°F7.0°C 23% Calm Calm 11.0 mph17.7 kmh 29.79 in1008.8 mb 0.00 in0.0 mm 0.00 in/hr0.0 mm/hr 0.00 in0.0 mm
06:20 PM 86.8°F30.4°C 44.6°F7.0°C 23% 5.0 mph N8.0 kmh N 11.0 mph17.7 kmh 29.79 in1008.8 mb 0.00 in0.0 mm 0.00 in/hr0.0 mm/hr 0.00 in0.0 mm
06:15 PM 86.9°F30.5°C 44.7°F7.1°C 23% 1.0 mph WSW1.6 kmh WSW 11.0 mph17.7 kmh 29.79 in1008.8 mb 0.00 in0.0 mm 0.00 in/hr0.0 mm/hr 0.00 in0.0 mm
06:10 PM 87.1°F30.6°C 44.9°F7.2°C 23% 3.0 mph WNW4.8 kmh WNW 10.0 mph16.1 kmh 29.79 in1008.8 mb 0.00 in0.0 mm 0.00 in/hr0.0 mm/hr 0.00 in0.0 mm
06:05 PM 87.4°F30.8°C 45.1°F7.3°C 23% 2.0 mph W3.2 kmh W 7.0 mph11.3 kmh 29.79 in1008.8 mb 0.00 in0.0 mm 0.00 in/hr0.0 mm/hr 0.00 in0.0 mm
05:55 PM 87.3°F30.7°C 46.1°F7.8°C 24% 3.0 mph SW4.8 kmh SW 9.0 mph14.5 kmh 29.79 in1008.8 mb 0.00 in0.0 mm 0.00 in/hr0.0 mm/hr 0.00 in0.0 mm
05:50 PM 87.6°F30.9°C 45.3°F7.4°C 23% 8.0 mph WSW12.9 kmh WSW 9.0 mph14.5 kmh 29.79 in1008.8 mb 0.00 in0.0 mm 0.00 in/hr0.0 mm/hr 0.00 in0.0 mm
05:45 PM 88.4°F31.3°C 45.9°F7.7°C 23% 3.0 mph WSW4.8 kmh WSW 9.0 mph14.5 kmh 29.79 in1008.8 mb 0.00 in0.0 mm 0.00 in/hr0.0 mm/hr 0.00 in0.0 mm
05:40 PM 88.4°F31.3°C 45.9°F7.7°C 23% 2.0 mph SW3.2 kmh SW 7.0 mph11.3 kmh 29.79 in1008.8 mb 0.00 in0.0 mm 0.00 in/hr0.0 mm/hr 0.00 in0.0 mm
05:35 PM 88.8°F31.6°C 46.3°F7.9°C 23% 5.0 mph W8.0 kmh W 7.0 mph11.3 kmh 29.80 in1009.1 mb 0.00 in0.0 mm 0.00 in/hr0.0 mm/hr 0.00 in0.0 mm
05:30 PM 88.6°F31.4°C 46.1°F7.8°C 23% 1.0 mph NW1.6 kmh NW 11.0 mph17.7 kmh 29.80 in1009.1 mb 0.00 in0.0 mm 0.00 in/hr0.0 mm/hr 0.00 in0.0 mm
05:25 PM 88.6°F31.4°C 46.1°F7.8°C 23% 4.0 mph W6.4 kmh W 11.0 mph17.7 kmh 29.80 in1009.1 mb 0.00 in0.0 mm 0.00 in/hr0.0 mm/hr 0.00 in0.0 mm
05:20 PM 88.8°F31.6°C 46.3°F7.9°C 23% 2.0 mph WSW3.2 kmh WSW 9.0 mph14.5 kmh 29.80 in1009.1 mb 0.00 in0.0 mm 0.00 in/hr0.0 mm/hr 0.00 in0.0 mm
05:15 PM 89.0°F31.7°C 46.4°F8.0°C 23% 6.0 mph WSW9.7 kmh WSW 9.0 mph14.5 kmh 29.80 in1009.1 mb 0.00 in0.0 mm 0.00 in/hr0.0 mm/hr 0.00 in0.0 mm
05:10 PM 88.4°F31.3°C 45.9°F7.7°C 23% Calm Calm 9.0 mph14.5 kmh 29.80 in1009.1 mb 0.00 in0.0 mm 0.00 in/hr0.0 mm/hr 0.00 in0.0 mm
05:05 PM 88.8°F31.6°C 45.1°F7.3°C 22% 5.0 mph WNW8.0 kmh WNW 9.0 mph14.5 kmh 29.80 in1009.1 mb 0.00 in0.0 mm 0.00 in/hr0.0 mm/hr 0.00 in0.0 mm
05:00 PM 89.3°F31.8°C 45.5°F7.5°C 22% 6.0 mph SW9.7 kmh SW 12.0 mph19.3 kmh 29.80 in1009.1 mb 0.00 in0.0 mm 0.00 in/hr0.0 mm/hr 0.00 in0.0 mm
04:55 PM 88.7°F31.5°C 46.2°F7.9°C 23% 2.0 mph ENE3.2 kmh ENE 12.0 mph19.3 kmh 29.81 in1009.5 mb 0.00 in0.0 mm 0.00 in/hr0.0 mm/hr 0.00 in0.0 mm
04:50 PM 88.5°F31.4°C 46.0°F7.8°C 23% 1.0 mph S1.6 kmh S 12.0 mph19.3 kmh 29.80 in1009.1 mb 0.00 in0.0 mm 0.00 in/hr0.0 mm/hr 0.00 in0.0 mm
04:45 PM 88.7°F31.5°C 46.2°F7.9°C 23% 3.0 mph SSW4.8 kmh SSW 12.0 mph19.3 kmh 29.81 in1009.5 mb 0.00 in0.0 mm 0.00 in/hr0.0 mm/hr 0.00 in0.0 mm
04:40 PM 88.5°F31.4°C 46.0°F7.8°C 23% 4.0 mph W6.4 kmh W 8.0 mph12.9 kmh 29.81 in1009.5 mb 0.00 in0.0 mm 0.00 in/hr0.0 mm/hr 0.00 in0.0 mm
04:35 PM 88.8°F31.6°C 46.3°F7.9°C 23% 2.0 mph W3.2 kmh W 8.0 mph12.9 kmh 29.81 in1009.5 mb 0.00 in0.0 mm 0.00 in/hr0.0 mm/hr 0.00 in0.0 mm
04:30 PM 89.4°F31.9°C 46.8°F8.2°C 23% 6.0 mph W9.7 kmh W 15.0 mph24.1 kmh 29.81 in1009.5 mb 0.00 in0.0 mm 0.00 in/hr0.0 mm/hr 0.00 in0.0 mm
04:25 PM 89.6°F32.0°C 45.8°F7.7°C 22% 4.0 mph WNW6.4 kmh WNW 15.0 mph24.1 kmh 29.81 in1009.5 mb 0.00 in0.0 mm 0.00 in/hr0.0 mm/hr 0.00 in0.0 mm
04:20 PM 89.4°F31.9°C 46.8°F8.2°C 23% 6.0 mph WSW9.7 kmh WSW 15.0 mph24.1 kmh 29.81 in1009.5 mb 0.00 in0.0 mm 0.00 in/hr0.0 mm/hr 0.00 in0.0 mm
04:15 PM 89.2°F31.8°C 46.6°F8.1°C 23% 8.0 mph W12.9 kmh W 15.0 mph24.1 kmh 29.81 in1009.5 mb 0.00 in0.0 mm 0.00 in/hr0.0 mm/hr 0.00 in0.0 mm
04:10 PM 90.0°F32.2°C 46.1°F7.8°C 22% 2.0 mph NW3.2 kmh NW 15.0 mph24.1 kmh 29.82 in1009.8 mb 0.00 in0.0 mm 0.00 in/hr0.0 mm/hr 0.00 in0.0 mm
04:05 PM 89.2°F31.8°C 46.6°F8.1°C 23% 5.0 mph W8.0 kmh W 15.0 mph24.1 kmh 29.82 in1009.8 mb 0.00 in0.0 mm 0.00 in/hr0.0 mm/hr 0.00 in0.0 mm
04:00 PM 89.4°F31.9°C 46.8°F8.2°C 23% 1.0 mph WSW1.6 kmh WSW 10.0 mph16.1 kmh 29.82 in1009.8 mb 0.00 in0.0 mm 0.00 in/hr0.0 mm/hr 0.00 in0.0 mm
03:55 PM 89.6°F32.0°C 45.8°F7.7°C 22% Calm Calm 10.0 mph16.1 kmh 29.82 in1009.8 mb 0.00 in0.0 mm 0.00 in/hr0.0 mm/hr 0.00 in0.0 mm
03:50 PM 88.6°F31.4°C 46.1°F7.8°C 23% 6.0 mph W9.7 kmh W 10.0 mph16.1 kmh 29.82 in1009.8 mb 0.00 in0.0 mm 0.00 in/hr0.0 mm/hr 0.00 in0.0 mm
03:45 PM 88.9°F31.6°C 46.4°F8.0°C 23% Calm Calm 9.0 mph14.5 kmh 29.82 in1009.8 mb 0.00 in0.0 mm 0.00 in/hr0.0 mm/hr 0.00 in0.0 mm
03:40 PM 88.9°F31.6°C 46.4°F8.0°C 23% 1.0 mph NW1.6 kmh NW 7.0 mph11.3 kmh 29.83 in1010.2 mb 0.00 in0.0 mm 0.00 in/hr0.0 mm/hr 0.00 in0.0 mm
03:35 PM 88.4°F31.3°C 47.1°F8.4°C 24% 2.0 mph SE3.2 kmh SE 6.0 mph9.7 kmh 29.83 in1010.2 mb 0.00 in0.0 mm 0.00 in/hr0.0 mm/hr 0.00 in0.0 mm
03:30 PM 88.8°F31.6°C 46.3°F7.9°C 23% 3.0 mph NNW4.8 kmh NNW 12.0 mph19.3 kmh 29.82 in1009.8 mb 0.00 in0.0 mm 0.00 in/hr0.0 mm/hr 0.00 in0.0 mm
03:25 PM 89.7°F32.1°C 47.0°F8.3°C 23% 6.0 mph WNW9.7 kmh WNW 12.0 mph19.3 kmh 29.83 in1010.2 mb 0.00 in0.0 mm 0.00 in/hr0.0 mm/hr 0.00 in0.0 mm
03:20 PM 89.6°F32.0°C 46.9°F8.3°C 23% Calm Calm 7.0 mph11.3 kmh 29.83 in1010.2 mb 0.00 in0.0 mm 0.00 in/hr0.0 mm/hr 0.00 in0.0 mm
03:15 PM 89.6°F32.0°C 46.9°F8.3°C 23% 1.0 mph NNW1.6 kmh NNW 7.0 mph11.3 kmh 29.83 in1010.2 mb 0.00 in0.0 mm 0.00 in/hr0.0 mm/hr 0.00 in0.0 mm
03:10 PM 89.8°F32.1°C 47.1°F8.4°C 23% 2.0 mph SSW3.2 kmh SSW 7.0 mph11.3 kmh 29.83 in1010.2 mb 0.00 in0.0 mm 0.00 in/hr0.0 mm/hr 0.00 in0.0 mm
03:05 PM 89.4°F31.9°C 47.9°F8.8°C 24% 1.0 mph S1.6 kmh S 7.0 mph11.3 kmh 29.83 in1010.2 mb 0.00 in0.0 mm 0.00 in/hr0.0 mm/hr 0.00 in0.0 mm
03:00 PM 90.1°F32.3°C 47.4°F8.6°C 23% 5.0 mph SSW8.0 kmh SSW 10.0 mph16.1 kmh 29.84 in1010.5 mb 0.00 in0.0 mm 0.00 in/hr0.0 mm/hr 0.00 in0.0 mm
02:55 PM 89.8°F32.1°C 47.1°F8.4°C 23% 1.0 mph N1.6 kmh N 10.0 mph16.1 kmh 29.84 in1010.5 mb 0.00 in0.0 mm 0.00 in/hr0.0 mm/hr 0.00 in0.0 mm
02:50 PM 90.3°F32.4°C 47.5°F8.6°C 23% Calm Calm 10.0 mph16.1 kmh 29.84 in1010.5 mb 0.00 in0.0 mm 0.00 in/hr0.0 mm/hr 0.00 in0.0 mm
02:45 PM 90.3°F32.4°C 47.5°F8.6°C 23% 3.0 mph NE4.8 kmh NE 10.0 mph16.1 kmh 29.84 in1010.5 mb 0.00 in0.0 mm 0.00 in/hr0.0 mm/hr 0.00 in0.0 mm
02:40 PM 89.0°F31.7°C 48.7°F9.3°C 25% 3.0 mph ESE4.8 kmh ESE 10.0 mph16.1 kmh 29.84 in1010.5 mb 0.00 in0.0 mm 0.00 in/hr0.0 mm/hr 0.00 in0.0 mm
02:35 PM 89.2°F31.8°C 48.8°F9.3°C 25% 2.0 mph S3.2 kmh S 9.0 mph14.5 kmh 29.84 in1010.5 mb 0.00 in0.0 mm 0.00 in/hr0.0 mm/hr 0.00 in0.0 mm
02:30 PM 89.8°F32.1°C 48.2°F9.0°C 24% 4.0 mph SE6.4 kmh SE 9.0 mph14.5 kmh 29.84 in1010.5 mb 0.00 in0.0 mm 0.00 in/hr0.0 mm/hr 0.00 in0.0 mm
02:25 PM 89.0°F31.7°C 48.7°F9.3°C 25% 5.0 mph ESE8.0 kmh ESE 9.0 mph14.5 kmh 29.84 in1010.5 mb 0.00 in0.0 mm 0.00 in/hr0.0 mm/hr 0.00 in0.0 mm
02:20 PM 88.1°F31.2°C 47.9°F8.8°C 25% 2.0 mph SE3.2 kmh SE 9.0 mph14.5 kmh 29.84 in1010.5 mb 0.00 in0.0 mm 0.00 in/hr0.0 mm/hr 0.00 in0.0 mm
02:15 PM 88.6°F31.4°C 48.3°F9.1°C 25% 7.0 mph SSW11.3 kmh SSW 9.0 mph14.5 kmh 29.85 in1010.8 mb 0.00 in0.0 mm 0.00 in/hr0.0 mm/hr 0.00 in0.0 mm
02:10 PM 87.8°F31.0°C 47.6°F8.7°C 25% 5.0 mph WNW8.0 kmh WNW 8.0 mph12.9 kmh 29.85 in1010.8 mb 0.00 in0.0 mm 0.00 in/hr0.0 mm/hr 0.00 in0.0 mm
02:05 PM 87.9°F31.1°C 48.8°F9.3°C 26% 2.0 mph W3.2 kmh W 8.0 mph12.9 kmh 29.85 in1010.8 mb 0.00 in0.0 mm 0.00 in/hr0.0 mm/hr 0.00 in0.0 mm
02:00 PM 88.8°F31.6°C 47.4°F8.6°C 24% 3.0 mph W4.8 kmh W 9.0 mph14.5 kmh 29.85 in1010.8 mb 0.00 in0.0 mm 0.00 in/hr0.0 mm/hr 0.00 in0.0 mm
01:55 PM 88.3°F31.3°C 48.1°F8.9°C 25% 6.0 mph WNW9.7 kmh WNW 9.0 mph14.5 kmh 29.85 in1010.8 mb 0.00 in0.0 mm 0.00 in/hr0.0 mm/hr 0.00 in0.0 mm
01:50 PM 86.9°F30.5°C 47.9°F8.8°C 26% 1.0 mph SSE1.6 kmh SSE 8.0 mph12.9 kmh 29.85 in1010.8 mb 0.00 in0.0 mm 0.00 in/hr0.0 mm/hr 0.00 in0.0 mm
01:45 PM 87.6°F30.9°C 47.5°F8.6°C 25% 2.0 mph NNE3.2 kmh NNE 8.0 mph12.9 kmh 29.85 in1010.8 mb 0.00 in0.0 mm 0.00 in/hr0.0 mm/hr 0.00 in0.0 mm
01:40 PM 88.0°F31.1°C 47.8°F8.8°C 25% Calm Calm 8.0 mph12.9 kmh 29.86 in1011.2 mb 0.00 in0.0 mm 0.00 in/hr0.0 mm/hr 0.00 in0.0 mm
01:35 PM 88.0°F31.1°C 48.9°F9.4°C 26% 4.0 mph SSE6.4 kmh SSE 8.0 mph12.9 kmh 29.86 in1011.2 mb 0.00 in0.0 mm 0.00 in/hr0.0 mm/hr 0.00 in0.0 mm
01:30 PM 87.4°F30.8°C 48.4°F9.1°C 26% 5.0 mph SSW8.0 kmh SSW 12.0 mph19.3 kmh 29.86 in1011.2 mb 0.00 in0.0 mm 0.00 in/hr0.0 mm/hr 0.00 in0.0 mm
01:25 PM 86.4°F30.2°C 47.5°F8.6°C 26% 4.0 mph NE6.4 kmh NE 12.0 mph19.3 kmh 29.86 in1011.2 mb 0.00 in0.0 mm 0.00 in/hr0.0 mm/hr 0.00 in0.0 mm
01:20 PM 87.7°F30.9°C 47.6°F8.7°C 25% 2.0 mph W3.2 kmh W 12.0 mph19.3 kmh 29.86 in1011.2 mb 0.00 in0.0 mm 0.00 in/hr0.0 mm/hr 0.00 in0.0 mm
01:15 PM 88.2°F31.2°C 48.0°F8.9°C 25% 4.0 mph NE6.4 kmh NE 7.0 mph11.3 kmh 29.86 in1011.2 mb 0.00 in0.0 mm 0.00 in/hr0.0 mm/hr 0.00 in0.0 mm
01:10 PM 87.2°F30.7°C 49.2°F9.6°C 27% 3.0 mph SE4.8 kmh SE 7.0 mph11.3 kmh 29.87 in1011.5 mb 0.00 in0.0 mm 0.00 in/hr0.0 mm/hr 0.00 in0.0 mm
01:05 PM 86.9°F30.5°C 47.9°F8.8°C 26% 7.0 mph NW11.3 kmh NW 7.0 mph11.3 kmh 29.87 in1011.5 mb 0.00 in0.0 mm 0.00 in/hr0.0 mm/hr 0.00 in0.0 mm
01:00 PM 86.8°F30.4°C 47.8°F8.8°C 26% 1.0 mph S1.6 kmh S 13.0 mph20.9 kmh 29.87 in1011.5 mb 0.00 in0.0 mm 0.00 in/hr0.0 mm/hr 0.00 in0.0 mm
12:55 PM 87.1°F30.6°C 49.1°F9.5°C 27% 5.0 mph W8.0 kmh W 13.0 mph20.9 kmh 29.87 in1011.5 mb 0.00 in0.0 mm 0.00 in/hr0.0 mm/hr 0.00 in0.0 mm
12:50 PM 85.5°F29.7°C 48.7°F9.3°C 28% 3.0 mph NW4.8 kmh NW 13.0 mph20.9 kmh 29.87 in1011.5 mb 0.00 in0.0 mm 0.00 in/hr0.0 mm/hr 0.00 in0.0 mm
12:45 PM 86.0°F30.0°C 48.2°F9.0°C 27% 9.0 mph WSW14.5 kmh WSW 9.0 mph14.5 kmh 29.88 in1011.9 mb 0.00 in0.0 mm 0.00 in/hr0.0 mm/hr 0.00 in0.0 mm
12:40 PM 87.5°F30.8°C 48.4°F9.1°C 26% 4.0 mph WSW6.4 kmh WSW 4.0 mph6.4 kmh 29.88 in1011.9 mb 0.00 in0.0 mm 0.00 in/hr0.0 mm/hr 0.00 in0.0 mm
12:35 PM 86.6°F30.3°C 48.7°F9.3°C 27% 2.0 mph WNW3.2 kmh WNW 4.0 mph6.4 kmh 29.88 in1011.9 mb 0.00 in0.0 mm 0.00 in/hr0.0 mm/hr 0.00 in0.0 mm
12:30 PM 85.7°F29.8°C 48.9°F9.4°C 28% 1.0 mph SSW1.6 kmh SSW 10.0 mph16.1 kmh 29.88 in1011.9 mb 0.00 in0.0 mm 0.00 in/hr0.0 mm/hr 0.00 in0.0 mm
12:25 PM 85.9°F29.9°C 49.1°F9.5°C 28% 1.0 mph WSW1.6 kmh WSW 10.0 mph16.1 kmh 29.88 in1011.9 mb 0.00 in0.0 mm 0.00 in/hr0.0 mm/hr 0.00 in0.0 mm
12:20 PM 84.8°F29.3°C 49.1°F9.5°C 29% 3.0 mph WSW4.8 kmh WSW 10.0 mph16.1 kmh 29.88 in1011.9 mb 0.00 in0.0 mm 0.00 in/hr0.0 mm/hr 0.00 in0.0 mm
12:15 PM 86.3°F30.2°C 49.4°F9.7°C 28% 6.0 mph WNW9.7 kmh WNW 8.0 mph12.9 kmh 29.89 in1012.2 mb 0.00 in0.0 mm 0.00 in/hr0.0 mm/hr 0.00 in0.0 mm
12:10 PM 85.6°F29.8°C 48.8°F9.3°C 28% 3.0 mph ENE4.8 kmh ENE 8.0 mph12.9 kmh 29.89 in1012.2 mb 0.00 in0.0 mm 0.00 in/hr0.0 mm/hr 0.00 in0.0 mm
12:05 PM 85.6°F29.8°C 48.8°F9.3°C 28% 1.0 mph WSW1.6 kmh WSW 8.0 mph12.9 kmh 29.89 in1012.2 mb 0.00 in0.0 mm 0.00 in/hr0.0 mm/hr 0.00 in0.0 mm
12:00 PM 85.5°F29.7°C 49.7°F9.8°C 29% Calm Calm 13.0 mph20.9 kmh 29.89 in1012.2 mb 0.00 in0.0 mm 0.00 in/hr0.0 mm/hr 0.00 in0.0 mm
11:55 AM 84.8°F29.3°C 49.1°F9.5°C 29% 1.0 mph WNW1.6 kmh WNW 13.0 mph20.9 kmh 29.89 in1012.2 mb 0.00 in0.0 mm 0.00 in/hr0.0 mm/hr 0.00 in0.0 mm
11:50 AM 84.7°F29.3°C 48.0°F8.9°C 28% 7.0 mph WSW11.3 kmh WSW 13.0 mph20.9 kmh 29.90 in1012.5 mb 0.00 in0.0 mm 0.00 in/hr0.0 mm/hr 0.00 in0.0 mm
11:45 AM 85.5°F29.7°C 48.7°F9.3°C 28% Calm Calm 6.0 mph9.7 kmh 29.90 in1012.5 mb 0.00 in0.0 mm 0.00 in/hr0.0 mm/hr 0.00 in0.0 mm
11:40 AM 84.7°F29.3°C 49.0°F9.4°C 29% 2.0 mph E3.2 kmh E 6.0 mph9.7 kmh 29.90 in1012.5 mb 0.00 in0.0 mm 0.00 in/hr0.0 mm/hr 0.00 in0.0 mm
11:35 AM 83.6°F28.7°C 48.0°F8.9°C 29% 5.0 mph SSW8.0 kmh SSW 6.0 mph9.7 kmh 29.90 in1012.5 mb 0.00 in0.0 mm 0.00 in/hr0.0 mm/hr 0.00 in0.0 mm
11:30 AM 84.9°F29.4°C 48.2°F9.0°C 28% 2.0 mph SSW3.2 kmh SSW 8.0 mph12.9 kmh 29.90 in1012.5 mb 0.00 in0.0 mm 0.00 in/hr0.0 mm/hr 0.00 in0.0 mm
11:25 AM 84.7°F29.3°C 48.0°F8.9°C 28% 3.0 mph SW4.8 kmh SW 8.0 mph12.9 kmh 29.90 in1012.5 mb 0.00 in0.0 mm 0.00 in/hr0.0 mm/hr 0.00 in0.0 mm
11:20 AM 83.7°F28.7°C 48.1°F8.9°C 29% Calm Calm 8.0 mph12.9 kmh 29.91 in1012.9 mb 0.00 in0.0 mm 0.00 in/hr0.0 mm/hr 0.00 in0.0 mm
11:15 AM 83.2°F28.4°C 47.7°F8.7°C 29% 2.0 mph NNE3.2 kmh NNE 8.0 mph12.9 kmh 29.91 in1012.9 mb 0.00 in0.0 mm 0.00 in/hr0.0 mm/hr 0.00 in0.0 mm
11:10 AM 83.2°F28.4°C 47.7°F8.7°C 29% 1.0 mph W1.6 kmh W 8.0 mph12.9 kmh 29.91 in1012.9 mb 0.00 in0.0 mm 0.00 in/hr0.0 mm/hr 0.00 in0.0 mm
11:05 AM 83.0°F28.3°C 46.6°F8.1°C 28% 6.0 mph WSW9.7 kmh WSW 7.0 mph11.3 kmh 29.91 in1012.9 mb 0.00 in0.0 mm 0.00 in/hr0.0 mm/hr 0.00 in0.0 mm
11:00 AM 81.7°F27.6°C 47.3°F8.5°C 30% Calm Calm 10.0 mph16.1 kmh 29.91 in1012.9 mb 0.00 in0.0 mm 0.00 in/hr0.0 mm/hr 0.00 in0.0 mm
10:55 AM 82.0°F27.8°C 46.6°F8.1°C 29% 4.0 mph WSW6.4 kmh WSW 10.0 mph16.1 kmh 29.91 in1012.9 mb 0.00 in0.0 mm 0.00 in/hr0.0 mm/hr 0.00 in0.0 mm
10:50 AM 82.1°F27.8°C 45.8°F7.7°C 28% 5.0 mph W8.0 kmh W 10.0 mph16.1 kmh 29.91 in1012.9 mb 0.00 in0.0 mm 0.00 in/hr0.0 mm/hr 0.00 in0.0 mm
10:45 AM 82.8°F28.2°C 45.4°F7.4°C 27% 5.0 mph WNW8.0 kmh WNW 9.0 mph14.5 kmh 29.91 in1012.9 mb 0.00 in0.0 mm 0.00 in/hr0.0 mm/hr 0.00 in0.0 mm
10:40 AM 82.0°F27.8°C 44.8°F7.1°C 27% Calm Calm 8.0 mph12.9 kmh 29.91 in1012.9 mb 0.00 in0.0 mm 0.00 in/hr0.0 mm/hr 0.00 in0.0 mm
10:35 AM 81.6°F27.6°C 44.4°F6.9°C 27% 6.0 mph WSW9.7 kmh WSW 8.0 mph12.9 kmh 29.92 in1013.2 mb 0.00 in0.0 mm 0.00 in/hr0.0 mm/hr 0.00 in0.0 mm
10:30 AM 82.0°F27.8°C 43.8°F6.6°C 26% Calm Calm 9.0 mph14.5 kmh 29.92 in1013.2 mb 0.00 in0.0 mm 0.00 in/hr0.0 mm/hr 0.00 in0.0 mm
10:25 AM 82.1°F27.8°C 43.9°F6.6°C 26% 3.0 mph WNW4.8 kmh WNW 8.0 mph12.9 kmh 29.92 in1013.2 mb 0.00 in0.0 mm 0.00 in/hr0.0 mm/hr 0.00 in0.0 mm
10:20 AM 81.8°F27.7°C 43.6°F6.4°C 26% 3.0 mph WNW4.8 kmh WNW 8.0 mph12.9 kmh 29.92 in1013.2 mb 0.00 in0.0 mm 0.00 in/hr0.0 mm/hr 0.00 in0.0 mm
10:15 AM 81.6°F27.6°C 43.4°F6.3°C 26% 1.0 mph WNW1.6 kmh WNW 8.0 mph12.9 kmh 29.92 in1013.2 mb 0.00 in0.0 mm 0.00 in/hr0.0 mm/hr 0.00 in0.0 mm
10:10 AM 81.0°F27.2°C 43.9°F6.6°C 27% 5.0 mph W8.0 kmh W 8.0 mph12.9 kmh 29.92 in1013.2 mb 0.00 in0.0 mm 0.00 in/hr0.0 mm/hr 0.00 in0.0 mm
10:05 AM 80.0°F26.7°C 43.1°F6.2°C 27% Calm Calm 8.0 mph12.9 kmh 29.92 in1013.2 mb 0.00 in0.0 mm 0.00 in/hr0.0 mm/hr 0.00 in0.0 mm
10:00 AM 79.7°F26.5°C 43.8°F6.6°C 28% 2.0 mph WSW3.2 kmh WSW 8.0 mph12.9 kmh 29.92 in1013.2 mb 0.00 in0.0 mm 0.00 in/hr0.0 mm/hr 0.00 in0.0 mm
09:55 AM 80.1°F26.7°C 44.1°F6.7°C 28% 4.0 mph W6.4 kmh W 8.0 mph12.9 kmh 29.92 in1013.2 mb 0.00 in0.0 mm 0.00 in/hr0.0 mm/hr 0.00 in0.0 mm
09:50 AM 79.5°F26.4°C 44.5°F6.9°C 29% Calm Calm 8.0 mph12.9 kmh 29.92 in1013.2 mb 0.00 in0.0 mm 0.00 in/hr0.0 mm/hr 0.00 in0.0 mm
09:45 AM 79.7°F26.5°C 44.7°F7.1°C 29% 7.0 mph WSW11.3 kmh WSW 8.0 mph12.9 kmh 29.92 in1013.2 mb 0.00 in0.0 mm 0.00 in/hr0.0 mm/hr 0.00 in0.0 mm
09:40 AM 79.1°F26.2°C 45.0°F7.2°C 30% 5.0 mph W8.0 kmh W 7.0 mph11.3 kmh 29.92 in1013.2 mb 0.00 in0.0 mm 0.00 in/hr0.0 mm/hr 0.00 in0.0 mm
09:35 AM 78.5°F25.8°C 44.5°F6.9°C 30% 7.0 mph WSW11.3 kmh WSW 7.0 mph11.3 kmh 29.92 in1013.2 mb 0.00 in0.0 mm 0.00 in/hr0.0 mm/hr 0.00 in0.0 mm
09:30 AM 78.3°F25.7°C 44.4°F6.9°C 30% 4.0 mph WSW6.4 kmh WSW 7.0 mph11.3 kmh 29.92 in1013.2 mb 0.00 in0.0 mm 0.00 in/hr0.0 mm/hr 0.00 in0.0 mm
09:25 AM 77.8°F25.4°C 44.8°F7.1°C 31% 4.0 mph WSW6.4 kmh WSW 7.0 mph11.3 kmh 29.92 in1013.2 mb 0.00 in0.0 mm 0.00 in/hr0.0 mm/hr 0.00 in0.0 mm
09:20 AM 77.5°F25.3°C 44.5°F6.9°C 31% 5.0 mph W8.0 kmh W 7.0 mph11.3 kmh 29.92 in1013.2 mb 0.00 in0.0 mm 0.00 in/hr0.0 mm/hr 0.00 in0.0 mm
09:15 AM 77.8°F25.4°C 43.9°F6.6°C 30% 2.0 mph WSW3.2 kmh WSW 7.0 mph11.3 kmh 29.92 in1013.2 mb 0.00 in0.0 mm 0.00 in/hr0.0 mm/hr 0.00 in0.0 mm
09:10 AM 77.4°F25.2°C 45.3°F7.4°C 32% 4.0 mph WSW6.4 kmh WSW 7.0 mph11.3 kmh 29.92 in1013.2 mb 0.00 in0.0 mm 0.00 in/hr0.0 mm/hr 0.00 in0.0 mm
09:05 AM 76.5°F24.7°C 44.5°F6.9°C 32% 2.0 mph WNW3.2 kmh WNW 7.0 mph11.3 kmh 29.93 in1013.5 mb 0.00 in0.0 mm 0.00 in/hr0.0 mm/hr 0.00 in0.0 mm
09:00 AM 76.5°F24.7°C 45.3°F7.4°C 33% 5.0 mph W8.0 kmh W 6.0 mph9.7 kmh 29.93 in1013.5 mb 0.00 in0.0 mm 0.00 in/hr0.0 mm/hr 0.00 in0.0 mm
08:55 AM 76.0°F24.4°C 44.9°F7.2°C 33% 3.0 mph W4.8 kmh W 6.0 mph9.7 kmh 29.93 in1013.5 mb 0.00 in0.0 mm 0.00 in/hr0.0 mm/hr 0.00 in0.0 mm
08:50 AM 76.2°F24.6°C 45.0°F7.2°C 33% 4.0 mph W6.4 kmh W 6.0 mph9.7 kmh 29.93 in1013.5 mb 0.00 in0.0 mm 0.00 in/hr0.0 mm/hr 0.00 in0.0 mm
08:45 AM 76.2°F24.6°C 45.0°F7.2°C 33% 1.0 mph WNW1.6 kmh WNW 5.0 mph8.0 kmh 29.93 in1013.5 mb 0.00 in0.0 mm 0.00 in/hr0.0 mm/hr 0.00 in0.0 mm
08:40 AM 76.0°F24.4°C 44.9°F7.2°C 33% 1.0 mph W1.6 kmh W 5.0 mph8.0 kmh 29.93 in1013.5 mb 0.00 in0.0 mm 0.00 in/hr0.0 mm/hr 0.00 in0.0 mm
08:35 AM 75.9°F24.4°C 44.8°F7.1°C 33% Calm Calm 5.0 mph8.0 kmh 29.93 in1013.5 mb 0.00 in0.0 mm 0.00 in/hr0.0 mm/hr 0.00 in0.0 mm
08:30 AM 75.5°F24.2°C 44.4°F6.9°C 33% 2.0 mph W3.2 kmh W 7.0 mph11.3 kmh 29.93 in1013.5 mb 0.00 in0.0 mm 0.00 in/hr0.0 mm/hr 0.00 in0.0 mm
08:25 AM 75.7°F24.3°C 44.6°F7.0°C 33% 4.0 mph W6.4 kmh W 6.0 mph9.7 kmh 29.93 in1013.5 mb 0.00 in0.0 mm 0.00 in/hr0.0 mm/hr 0.00 in0.0 mm
08:20 AM 75.3°F24.1°C 44.2°F6.8°C 33% 4.0 mph W6.4 kmh W 6.0 mph9.7 kmh 29.93 in1013.5 mb 0.00 in0.0 mm 0.00 in/hr0.0 mm/hr 0.00 in0.0 mm
08:15 AM 75.1°F23.9°C 44.9°F7.2°C 34% 5.0 mph W8.0 kmh W 6.0 mph9.7 kmh 29.94 in1013.9 mb 0.00 in0.0 mm 0.00 in/hr0.0 mm/hr 0.00 in0.0 mm
08:10 AM 74.2°F23.4°C 45.6°F7.6°C 36% 2.0 mph W3.2 kmh W 4.0 mph6.4 kmh 29.93 in1013.5 mb 0.00 in0.0 mm 0.00 in/hr0.0 mm/hr 0.00 in0.0 mm
08:05 AM 72.1°F22.3°C 46.5°F8.1°C 40% Calm Calm 4.0 mph6.4 kmh 29.94 in1013.9 mb 0.00 in0.0 mm 0.00 in/hr0.0 mm/hr 0.00 in0.0 mm
08:00 AM 69.0°F20.6°C 47.4°F8.6°C 46% 2.0 mph W3.2 kmh W 4.0 mph6.4 kmh 29.93 in1013.5 mb 0.00 in0.0 mm 0.00 in/hr0.0 mm/hr 0.00 in0.0 mm
07:55 AM 66.6°F19.2°C 49.5°F9.7°C 54% Calm Calm 4.0 mph6.4 kmh 29.94 in1013.9 mb 0.00 in0.0 mm 0.00 in/hr0.0 mm/hr 0.00 in0.0 mm
07:50 AM 65.3°F18.5°C 48.7°F9.3°C 55% Calm Calm 1.0 mph1.6 kmh 29.93 in1013.5 mb 0.00 in0.0 mm 0.00 in/hr0.0 mm/hr 0.00 in0.0 mm
07:45 AM 64.1°F17.8°C 48.6°F9.2°C 57% Calm Calm -- 29.94 in1013.9 mb 0.00 in0.0 mm 0.00 in/hr0.0 mm/hr 0.00 in0.0 mm
07:40 AM 62.9°F17.2°C 47.9°F8.8°C 58% Calm Calm -- 29.93 in1013.5 mb 0.00 in0.0 mm 0.00 in/hr0.0 mm/hr 0.00 in0.0 mm
07:35 AM 62.0°F16.7°C 48.0°F8.9°C 60% Calm Calm -- 29.94 in1013.9 mb 0.00 in0.0 mm 0.00 in/hr0.0 mm/hr 0.00 in0.0 mm
07:30 AM 61.3°F16.3°C 47.8°F8.8°C 61% Calm Calm 1.0 mph1.6 kmh 29.94 in1013.9 mb 0.00 in0.0 mm 0.00 in/hr0.0 mm/hr 0.00 in0.0 mm
07:25 AM 60.4°F15.8°C 47.3°F8.5°C 62% Calm Calm 1.0 mph1.6 kmh 29.94 in1013.9 mb 0.00 in0.0 mm 0.00 in/hr0.0 mm/hr 0.00 in0.0 mm
07:20 AM 59.5°F15.3°C 46.9°F8.3°C 63% Calm Calm 1.0 mph1.6 kmh 29.93 in1013.5 mb 0.00 in0.0 mm 0.00 in/hr0.0 mm/hr 0.00 in0.0 mm
07:15 AM 58.9°F14.9°C 46.8°F8.2°C 64% Calm Calm -- 29.93 in1013.5 mb 0.00 in0.0 mm 0.00 in/hr0.0 mm/hr 0.00 in0.0 mm
07:10 AM 58.3°F14.6°C 46.6°F8.1°C 65% Calm Calm -- 29.93 in1013.5 mb 0.00 in0.0 mm 0.00 in/hr0.0 mm/hr 0.00 in0.0 mm
07:05 AM 57.8°F14.3°C 46.5°F8.1°C 66% Calm Calm -- 29.93 in1013.5 mb 0.00 in0.0 mm 0.00 in/hr0.0 mm/hr 0.00 in0.0 mm
07:00 AM 57.3°F14.1°C 46.1°F7.8°C 66% Calm Calm 1.0 mph1.6 kmh 29.94 in1013.9 mb 0.00 in0.0 mm 0.00 in/hr0.0 mm/hr 0.00 in0.0 mm
06:55 AM 56.6°F13.7°C 46.2°F7.9°C 68% Calm Calm -- 29.93 in1013.5 mb 0.00 in0.0 mm 0.00 in/hr0.0 mm/hr 0.00 in0.0 mm
06:50 AM 56.0°F13.3°C 45.6°F7.6°C 68% Calm Calm -- 29.93 in1013.5 mb 0.00 in0.0 mm 0.00 in/hr0.0 mm/hr 0.00 in0.0 mm
06:45 AM 55.6°F13.1°C 45.2°F7.3°C 68% Calm Calm -- 29.93 in1013.5 mb 0.00 in0.0 mm 0.00 in/hr0.0 mm/hr 0.00 in0.0 mm
06:40 AM 55.1°F12.8°C 45.1°F7.3°C 69% Calm Calm -- 29.93 in1013.5 mb 0.00 in0.0 mm 0.00 in/hr0.0 mm/hr 0.00 in0.0 mm
06:35 AM 54.9°F12.7°C 44.9°F7.2°C 69% Calm Calm -- 29.93 in1013.5 mb 0.00 in0.0 mm 0.00 in/hr0.0 mm/hr 0.00 in0.0 mm
06:30 AM 54.9°F12.7°C 44.9°F7.2°C 69% Calm Calm 1.0 mph1.6 kmh 29.93 in1013.5 mb 0.00 in0.0 mm 0.00 in/hr0.0 mm/hr 0.00 in0.0 mm
06:25 AM 54.8°F12.7°C 44.8°F7.1°C 69% Calm Calm 1.0 mph1.6 kmh 29.93 in1013.5 mb 0.00 in0.0 mm 0.00 in/hr0.0 mm/hr 0.00 in0.0 mm
06:20 AM 54.6°F12.6°C 44.7°F7.1°C 69% Calm Calm 1.0 mph1.6 kmh 29.94 in1013.9 mb 0.00 in0.0 mm 0.00 in/hr0.0 mm/hr 0.00 in0.0 mm
06:15 AM 54.6°F12.6°C 44.7°F7.1°C 69% Calm Calm 1.0 mph1.6 kmh 29.94 in1013.9 mb 0.00 in0.0 mm 0.00 in/hr0.0 mm/hr 0.00 in0.0 mm
06:10 AM 54.5°F12.5°C 44.6°F7.0°C 69% Calm Calm -- 29.93 in1013.5 mb 0.00 in0.0 mm 0.00 in/hr0.0 mm/hr 0.00 in0.0 mm
06:05 AM 54.5°F12.5°C 44.6°F7.0°C 69% Calm Calm -- 29.93 in1013.5 mb 0.00 in0.0 mm 0.00 in/hr0.0 mm/hr 0.00 in0.0 mm
05:55 AM 54.6°F12.6°C 44.3°F6.8°C 68% Calm Calm -- 29.93 in1013.5 mb 0.00 in0.0 mm 0.00 in/hr0.0 mm/hr 0.00 in0.0 mm
05:50 AM 54.6°F12.6°C 44.7°F7.1°C 69% Calm Calm -- 29.93 in1013.5 mb 0.00 in0.0 mm 0.00 in/hr0.0 mm/hr 0.00 in0.0 mm
05:45 AM 54.6°F12.6°C 44.3°F6.8°C 68% Calm Calm -- 29.93 in1013.5 mb 0.00 in0.0 mm 0.00 in/hr0.0 mm/hr 0.00 in0.0 mm
05:40 AM 54.3°F12.4°C 44.4°F6.9°C 69% Calm Calm -- 29.93 in1013.5 mb 0.00 in0.0 mm 0.00 in/hr0.0 mm/hr 0.00 in0.0 mm
05:35 AM 54.2°F12.3°C 43.9°F6.6°C 68% Calm Calm -- 29.93 in1013.5 mb 0.00 in0.0 mm 0.00 in/hr0.0 mm/hr 0.00 in0.0 mm
05:30 AM 54.3°F12.4°C 44.0°F6.7°C 68% Calm Calm -- 29.93 in1013.5 mb 0.00 in0.0 mm 0.00 in/hr0.0 mm/hr 0.00 in0.0 mm
05:25 AM 54.7°F12.6°C 44.0°F6.7°C 67% Calm Calm -- 29.93 in1013.5 mb 0.00 in0.0 mm 0.00 in/hr0.0 mm/hr 0.00 in0.0 mm
05:20 AM 54.8°F12.7°C 44.1°F6.7°C 67% Calm Calm -- 29.93 in1013.5 mb 0.00 in0.0 mm 0.00 in/hr0.0 mm/hr 0.00 in0.0 mm
05:15 AM 54.8°F12.7°C 43.7°F6.5°C 66% Calm Calm -- 29.93 in1013.5 mb 0.00 in0.0 mm 0.00 in/hr0.0 mm/hr 0.00 in0.0 mm
05:10 AM 54.9°F12.7°C 44.2°F6.8°C 67% Calm Calm -- 29.92 in1013.2 mb 0.00 in0.0 mm 0.00 in/hr0.0 mm/hr 0.00 in0.0 mm
05:05 AM 54.6°F12.6°C 43.9°F6.6°C 67% Calm Calm -- 29.93 in1013.5 mb 0.00 in0.0 mm 0.00 in/hr0.0 mm/hr 0.00 in0.0 mm
05:00 AM 54.9°F12.7°C 43.8°F6.6°C 66% Calm Calm -- 29.93 in1013.5 mb 0.00 in0.0 mm 0.00 in/hr0.0 mm/hr 0.00 in0.0 mm
04:55 AM 55.1°F12.8°C 44.0°F6.7°C 66% Calm Calm -- 29.93 in1013.5 mb 0.00 in0.0 mm 0.00 in/hr0.0 mm/hr 0.00 in0.0 mm
04:50 AM 55.0°F12.8°C 43.9°F6.6°C 66% Calm Calm -- 29.93 in1013.5 mb 0.00 in0.0 mm 0.00 in/hr0.0 mm/hr 0.00 in0.0 mm
04:45 AM 55.1°F12.8°C 44.0°F6.7°C 66% Calm Calm -- 29.93 in1013.5 mb 0.00 in0.0 mm 0.00 in/hr0.0 mm/hr 0.00 in0.0 mm
04:40 AM 55.1°F12.8°C 44.4°F6.9°C 67% Calm Calm -- 29.93 in1013.5 mb 0.00 in0.0 mm 0.00 in/hr0.0 mm/hr 0.00 in0.0 mm
04:35 AM 55.0°F12.8°C 43.9°F6.6°C 66% Calm Calm -- 29.93 in1013.5 mb 0.00 in0.0 mm 0.00 in/hr0.0 mm/hr 0.00 in0.0 mm
04:30 AM 55.0°F12.8°C 43.9°F6.6°C 66% Calm Calm 1.0 mph1.6 kmh 29.93 in1013.5 mb 0.00 in0.0 mm 0.00 in/hr0.0 mm/hr 0.00 in0.0 mm
04:25 AM 55.0°F12.8°C 43.9°F6.6°C 66% Calm Calm 1.0 mph1.6 kmh 29.92 in1013.2 mb 0.00 in0.0 mm 0.00 in/hr0.0 mm/hr 0.00 in0.0 mm
04:20 AM 55.0°F12.8°C 43.9°F6.6°C 66% Calm Calm 1.0 mph1.6 kmh 29.92 in1013.2 mb 0.00 in0.0 mm 0.00 in/hr0.0 mm/hr 0.00 in0.0 mm
04:15 AM 55.0°F12.8°C 43.9°F6.6°C 66% Calm Calm 1.0 mph1.6 kmh 29.92 in1013.2 mb 0.00 in0.0 mm 0.00 in/hr0.0 mm/hr 0.00 in0.0 mm
04:10 AM 55.3°F12.9°C 43.8°F6.6°C 65% Calm Calm -- 29.93 in1013.5 mb 0.00 in0.0 mm 0.00 in/hr0.0 mm/hr 0.00 in0.0 mm
04:05 AM 55.4°F13.0°C 44.2°F6.8°C 66% Calm Calm -- 29.93 in1013.5 mb 0.00 in0.0 mm 0.00 in/hr0.0 mm/hr 0.00 in0.0 mm
04:00 AM 55.2°F12.9°C 44.1°F6.7°C 66% Calm Calm -- 29.93 in1013.5 mb 0.00 in0.0 mm 0.00 in/hr0.0 mm/hr 0.00 in0.0 mm
03:55 AM 55.4°F13.0°C 44.2°F6.8°C 66% Calm Calm -- 29.93 in1013.5 mb 0.00 in0.0 mm 0.00 in/hr0.0 mm/hr 0.00 in0.0 mm
03:50 AM 55.5°F13.1°C 43.9°F6.6°C 65% Calm Calm -- 29.93 in1013.5 mb 0.00 in0.0 mm 0.00 in/hr0.0 mm/hr 0.00 in0.0 mm
03:45 AM 55.5°F13.1°C 43.9°F6.6°C 65% Calm Calm -- 29.93 in1013.5 mb 0.00 in0.0 mm 0.00 in/hr0.0 mm/hr 0.00 in0.0 mm
03:40 AM 55.7°F13.2°C 43.7°F6.5°C 64% Calm Calm -- 29.93 in1013.5 mb 0.00 in0.0 mm 0.00 in/hr0.0 mm/hr 0.00 in0.0 mm
03:35 AM 55.9°F13.3°C 44.3°F6.8°C 65% Calm Calm -- 29.93 in1013.5 mb 0.00 in0.0 mm 0.00 in/hr0.0 mm/hr 0.00 in0.0 mm
03:30 AM 55.9°F13.3°C 43.9°F6.6°C 64% Calm Calm 1.0 mph1.6 kmh 29.93 in1013.5 mb 0.00 in0.0 mm 0.00 in/hr0.0 mm/hr 0.00 in0.0 mm
03:25 AM 56.2°F13.4°C 44.6°F7.0°C 65% Calm Calm 1.0 mph1.6 kmh 29.93 in1013.5 mb 0.00 in0.0 mm 0.00 in/hr0.0 mm/hr 0.00 in0.0 mm
03:20 AM 56.1°F13.4°C 44.1°F6.7°C 64% Calm Calm 1.0 mph1.6 kmh 29.93 in1013.5 mb 0.00 in0.0 mm 0.00 in/hr0.0 mm/hr 0.00 in0.0 mm
03:15 AM 56.2°F13.4°C 44.2°F6.8°C 64% Calm Calm -- 29.93 in1013.5 mb 0.00 in0.0 mm 0.00 in/hr0.0 mm/hr 0.00 in0.0 mm
03:10 AM 56.2°F13.4°C 44.2°F6.8°C 64% Calm Calm -- 29.93 in1013.5 mb 0.00 in0.0 mm 0.00 in/hr0.0 mm/hr 0.00 in0.0 mm
03:05 AM 56.2°F13.4°C 44.2°F6.8°C 64% Calm Calm -- 29.93 in1013.5 mb 0.00 in0.0 mm 0.00 in/hr0.0 mm/hr 0.00 in0.0 mm
03:00 AM 56.4°F13.6°C 44.4°F6.9°C 64% Calm Calm -- 29.94 in1013.9 mb 0.00 in0.0 mm 0.00 in/hr0.0 mm/hr 0.00 in0.0 mm
02:55 AM 56.6°F13.7°C 44.2°F6.8°C 63% Calm Calm -- 29.94 in1013.9 mb 0.00 in0.0 mm 0.00 in/hr0.0 mm/hr 0.00 in0.0 mm
02:50 AM 56.7°F13.7°C 44.3°F6.8°C 63% Calm Calm -- 29.94 in1013.9 mb 0.00 in0.0 mm 0.00 in/hr0.0 mm/hr 0.00 in0.0 mm
02:45 AM 56.7°F13.7°C 44.3°F6.8°C 63% Calm Calm -- 29.94 in1013.9 mb 0.00 in0.0 mm 0.00 in/hr0.0 mm/hr 0.00 in0.0 mm
02:40 AM 56.8°F13.8°C 43.9°F6.6°C 62% Calm Calm -- 29.94 in1013.9 mb 0.00 in0.0 mm 0.00 in/hr0.0 mm/hr 0.00 in0.0 mm
02:35 AM 56.9°F13.8°C 44.0°F6.7°C 62% Calm Calm -- 29.94 in1013.9 mb 0.00 in0.0 mm 0.00 in/hr0.0 mm/hr 0.00 in0.0 mm
02:30 AM 57.2°F14.0°C 43.9°F6.6°C 61% Calm Calm -- 29.94 in1013.9 mb 0.00 in0.0 mm 0.00 in/hr0.0 mm/hr 0.00 in0.0 mm
02:25 AM 57.4°F14.1°C 44.5°F6.9°C 62% Calm Calm -- 29.94 in1013.9 mb 0.00 in0.0 mm 0.00 in/hr0.0 mm/hr 0.00 in0.0 mm
02:20 AM 57.3°F14.1°C 44.4°F6.9°C 62% Calm Calm -- 29.94 in1013.9 mb 0.00 in0.0 mm 0.00 in/hr0.0 mm/hr 0.00 in0.0 mm
02:15 AM 57.0°F13.9°C 44.1°F6.7°C 62% Calm Calm -- 29.94 in1013.9 mb 0.00 in0.0 mm 0.00 in/hr0.0 mm/hr 0.00 in0.0 mm
02:10 AM 57.0°F13.9°C 44.1°F6.7°C 62% Calm Calm -- 29.94 in1013.9 mb 0.00 in0.0 mm 0.00 in/hr0.0 mm/hr 0.00 in0.0 mm
02:05 AM 57.1°F13.9°C 44.2°F6.8°C 62% Calm Calm -- 29.94 in1013.9 mb 0.00 in0.0 mm 0.00 in/hr0.0 mm/hr 0.00 in0.0 mm
02:00 AM 57.1°F13.9°C 44.2°F6.8°C 62% Calm Calm 1.0 mph1.6 kmh 29.94 in1013.9 mb 0.00 in0.0 mm 0.00 in/hr0.0 mm/hr 0.00 in0.0 mm
01:55 AM 57.3°F14.1°C 44.4°F6.9°C 62% Calm Calm -- 29.94 in1013.9 mb 0.00 in0.0 mm 0.00 in/hr0.0 mm/hr 0.00 in0.0 mm
01:50 AM 57.3°F14.1°C 44.4°F6.9°C 62% Calm Calm -- 29.94 in1013.9 mb 0.00 in0.0 mm 0.00 in/hr0.0 mm/hr 0.00 in0.0 mm
01:45 AM 57.4°F14.1°C 44.1°F6.7°C 61% Calm Calm -- 29.95 in1014.2 mb 0.00 in0.0 mm 0.00 in/hr0.0 mm/hr 0.00 in0.0 mm
01:40 AM 57.4°F14.1°C 44.1°F6.7°C 61% Calm Calm -- 29.95 in1014.2 mb 0.00 in0.0 mm 0.00 in/hr0.0 mm/hr 0.00 in0.0 mm
01:35 AM 57.4°F14.1°C 44.1°F6.7°C 61% Calm Calm -- 29.95 in1014.2 mb 0.00 in0.0 mm 0.00 in/hr0.0 mm/hr 0.00 in0.0 mm
01:30 AM 57.4°F14.1°C 44.1°F6.7°C 61% Calm Calm -- 29.95 in1014.2 mb 0.00 in0.0 mm 0.00 in/hr0.0 mm/hr 0.00 in0.0 mm
01:25 AM 57.6°F14.2°C 44.3°F6.8°C 61% Calm Calm -- 29.95 in1014.2 mb 0.00 in0.0 mm 0.00 in/hr0.0 mm/hr 0.00 in0.0 mm
01:20 AM 57.6°F14.2°C 43.8°F6.6°C 60% Calm Calm -- 29.95 in1014.2 mb 0.00 in0.0 mm 0.00 in/hr0.0 mm/hr 0.00 in0.0 mm
01:15 AM 57.9°F14.4°C 44.1°F6.7°C 60% Calm Calm -- 29.95 in1014.2 mb 0.00 in0.0 mm 0.00 in/hr0.0 mm/hr 0.00 in0.0 mm
01:10 AM 57.8°F14.3°C 44.0°F6.7°C 60% Calm Calm -- 29.95 in1014.2 mb 0.00 in0.0 mm 0.00 in/hr0.0 mm/hr 0.00 in0.0 mm
01:05 AM 57.9°F14.4°C 43.7°F6.5°C 59% Calm Calm -- 29.95 in1014.2 mb 0.00 in0.0 mm 0.00 in/hr0.0 mm/hr 0.00 in0.0 mm
01:00 AM 58.4°F14.7°C 43.7°F6.5°C 58% Calm Calm -- 29.96 in1014.6 mb 0.00 in0.0 mm 0.00 in/hr0.0 mm/hr 0.00 in0.0 mm
12:55 AM 58.6°F14.8°C 44.3°F6.8°C 59% Calm Calm -- 29.96 in1014.6 mb 0.00 in0.0 mm 0.00 in/hr0.0 mm/hr 0.00 in0.0 mm
12:50 AM 58.5°F14.7°C 44.2°F6.8°C 59% Calm Calm -- 29.96 in1014.6 mb 0.00 in0.0 mm 0.00 in/hr0.0 mm/hr 0.00 in0.0 mm
12:45 AM 58.7°F14.8°C 44.4°F6.9°C 59% Calm Calm -- 29.96 in1014.6 mb 0.00 in0.0 mm 0.00 in/hr0.0 mm/hr 0.00 in0.0 mm
12:40 AM 58.7°F14.8°C 44.0°F6.7°C 58% Calm Calm -- 29.96 in1014.6 mb 0.00 in0.0 mm 0.00 in/hr0.0 mm/hr 0.00 in0.0 mm
12:35 AM 58.7°F14.8°C 44.0°F6.7°C 58% Calm Calm -- 29.96 in1014.6 mb 0.00 in0.0 mm 0.00 in/hr0.0 mm/hr 0.00 in0.0 mm
12:30 AM 58.7°F14.8°C 44.0°F6.7°C 58% Calm Calm 1.0 mph1.6 kmh 29.96 in1014.6 mb 0.00 in0.0 mm 0.00 in/hr0.0 mm/hr 0.00 in0.0 mm
12:25 AM 58.8°F14.9°C 44.1°F6.7°C 58% Calm Calm 1.0 mph1.6 kmh 29.96 in1014.6 mb 0.00 in0.0 mm 0.00 in/hr0.0 mm/hr 0.00 in0.0 mm
12:20 AM 59.0°F15.0°C 43.8°F6.6°C 57% Calm Calm 1.0 mph1.6 kmh 29.97 in1014.9 mb 0.00 in0.0 mm 0.00 in/hr0.0 mm/hr 0.00 in0.0 mm
12:15 AM 59.2°F15.1°C 44.0°F6.7°C 57% Calm Calm 1.0 mph1.6 kmh 29.97 in1014.9 mb 0.00 in0.0 mm 0.00 in/hr0.0 mm/hr 0.00 in0.0 mm
12:10 AM 59.1°F15.1°C 43.9°F6.6°C 57% Calm Calm 1.0 mph1.6 kmh 29.96 in1014.6 mb 0.00 in0.0 mm 0.00 in/hr0.0 mm/hr 0.00 in0.0 mm
12:05 AM 59.1°F15.1°C 43.4°F6.3°C 56% Calm Calm 1.0 mph1.6 kmh 29.96 in1014.6 mb 0.00 in0.0 mm 0.00 in/hr0.0 mm/hr 0.00 in0.0 mm
12:00 AM 59.2°F15.1°C 43.5°F6.4°C 56% Calm Calm -- 29.96 in1014.6 mb 0.00 in0.0 mm 0.00 in/hr0.0 mm/hr 0.00 in0.0 mm